sensor_id;sensor_type;location;lat;lon;timestamp;temperature;humidity
20200;DHT22;36284;37.236;-121.934;2022-11-15T00:01:16;14.50;99.90
20200;DHT22;36284;37.236;-121.934;2022-11-15T00:03:43;14.40;99.90
20200;DHT22;36284;37.236;-121.934;2022-11-15T00:06:10;14.20;99.90
20200;DHT22;36284;37.236;-121.934;2022-11-15T00:08:37;14.20;99.90
20200;DHT22;36284;37.236;-121.934;2022-11-15T00:11:04;13.90;99.90
20200;DHT22;36284;37.236;-121.934;2022-11-15T00:13:31;13.70;99.90
20200;DHT22;36284;37.236;-121.934;2022-11-15T00:15:59;13.40;99.90
20200;DHT22;36284;37.236;-121.934;2022-11-15T00:18:27;13.30;99.90
20200;DHT22;36284;37.236;-121.934;2022-11-15T00:20:55;13.10;99.90
20200;DHT22;36284;37.236;-121.934;2022-11-15T00:23:22;12.90;99.90
20200;DHT22;36284;37.236;-121.934;2022-11-15T00:25:58;12.70;99.90
20200;DHT22;36284;37.236;-121.934;2022-11-15T00:28:26;12.50;99.90
20200;DHT22;36284;37.236;-121.934;2022-11-15T00:30:53;12.40;99.90
20200;DHT22;36284;37.236;-121.934;2022-11-15T00:33:20;12.20;99.90
20200;DHT22;36284;37.236;-121.934;2022-11-15T00:35:47;12.20;99.90
20200;DHT22;36284;37.236;-121.934;2022-11-15T00:38:14;12.10;99.90
20200;DHT22;36284;37.236;-121.934;2022-11-15T00:40:41;12.10;99.90
20200;DHT22;36284;37.236;-121.934;2022-11-15T00:43:08;11.90;99.90
20200;DHT22;36284;37.236;-121.934;2022-11-15T00:45:35;11.90;99.90
20200;DHT22;36284;37.236;-121.934;2022-11-15T00:48:02;11.80;99.90
20200;DHT22;36284;37.236;-121.934;2022-11-15T00:50:28;11.70;99.90
20200;DHT22;36284;37.236;-121.934;2022-11-15T00:52:55;11.60;99.90
20200;DHT22;36284;37.236;-121.934;2022-11-15T00:55:22;11.60;99.90
20200;DHT22;36284;37.236;-121.934;2022-11-15T00:57:49;11.70;99.90
20200;DHT22;36284;37.236;-121.934;2022-11-15T01:00:16;11.70;99.90
20200;DHT22;36284;37.236;-121.934;2022-11-15T01:02:43;11.70;99.90
20200;DHT22;36284;37.236;-121.934;2022-11-15T01:05:10;11.50;99.90
20200;DHT22;36284;37.236;-121.934;2022-11-15T01:07:37;11.30;99.90
20200;DHT22;36284;37.236;-121.934;2022-11-15T01:10:04;11.20;99.90
20200;DHT22;36284;37.236;-121.934;2022-11-15T01:12:32;11.30;99.90
20200;DHT22;36284;37.236;-121.934;2022-11-15T01:14:59;11.20;99.90
20200;DHT22;36284;37.236;-121.934;2022-11-15T01:17:26;11.10;99.90
20200;DHT22;36284;37.236;-121.934;2022-11-15T01:19:53;10.90;99.90
20200;DHT22;36284;37.236;-121.934;2022-11-15T01:22:20;10.60;99.90
20200;DHT22;36284;37.236;-121.934;2022-11-15T01:24:48;10.70;99.90
20200;DHT22;36284;37.236;-121.934;2022-11-15T01:27:15;10.60;99.90
20200;DHT22;36284;37.236;-121.934;2022-11-15T01:29:43;10.40;99.90
20200;DHT22;36284;37.236;-121.934;2022-11-15T01:32:09;10.30;99.90
20200;DHT22;36284;37.236;-121.934;2022-11-15T01:34:36;10.30;99.90
20200;DHT22;36284;37.236;-121.934;2022-11-15T01:37:03;10.10;99.90
20200;DHT22;36284;37.236;-121.934;2022-11-15T01:39:30;10.10;99.90
20200;DHT22;36284;37.236;-121.934;2022-11-15T01:41:57;10.30;99.90
20200;DHT22;36284;37.236;-121.934;2022-11-15T01:47:23;10.20;99.90
20200;DHT22;36284;37.236;-121.934;2022-11-15T01:50:09;10.30;99.90
20200;DHT22;36284;37.236;-121.934;2022-11-15T01:52:38;10.10;99.90
20200;DHT22;36284;37.236;-121.934;2022-11-15T01:55:42;10.00;99.90
20200;DHT22;36284;37.236;-121.934;2022-11-15T01:58:04;9.90;99.90
20200;DHT22;36284;37.236;-121.934;2022-11-15T02:00:32;10.00;99.90
20200;DHT22;36284;37.236;-121.934;2022-11-15T02:02:59;9.80;99.90
20200;DHT22;36284;37.236;-121.934;2022-11-15T02:05:26;9.80;99.90
20200;DHT22;36284;37.236;-121.934;2022-11-15T02:07:53;9.80;99.90
20200;DHT22;36284;37.236;-121.934;2022-11-15T02:10:22;9.80;99.90
20200;DHT22;36284;37.236;-121.934;2022-11-15T02:12:50;9.60;99.90
20200;DHT22;36284;37.236;-121.934;2022-11-15T02:15:18;9.70;99.90
20200;DHT22;36284;37.236;-121.934;2022-11-15T02:18:05;9.60;99.90
20200;DHT22;36284;37.236;-121.934;2022-11-15T02:32:15;9.70;99.90
20200;DHT22;36284;37.236;-121.934;2022-11-15T02:34:56;9.70;99.90
20200;DHT22;36284;37.236;-121.934;2022-11-15T02:37:56;9.80;99.90
20200;DHT22;36284;37.236;-121.934;2022-11-15T02:40:37;9.80;99.90
20200;DHT22;36284;37.236;-121.934;2022-11-15T02:43:11;10.00;99.90
20200;DHT22;36284;37.236;-121.934;2022-11-15T02:46:05;10.00;99.90
20200;DHT22;36284;37.236;-121.934;2022-11-15T02:48:34;10.00;99.90
20200;DHT22;36284;37.236;-121.934;2022-11-15T02:51:02;10.10;99.90
20200;DHT22;36284;37.236;-121.934;2022-11-15T02:53:29;10.10;99.90
20200;DHT22;36284;37.236;-121.934;2022-11-15T02:55:57;10.20;99.90
20200;DHT22;36284;37.236;-121.934;2022-11-15T03:11:19;10.50;99.90
20200;DHT22;36284;37.236;-121.934;2022-11-15T03:13:49;10.50;99.90
20200;DHT22;36284;37.236;-121.934;2022-11-15T03:16:38;10.50;99.90
20200;DHT22;36284;37.236;-121.934;2022-11-15T03:21:46;10.70;99.90
20200;DHT22;36284;37.236;-121.934;2022-11-15T03:24:14;10.70;99.90
20200;DHT22;36284;37.236;-121.934;2022-11-15T03:26:45;10.60;99.90
20200;DHT22;36284;37.236;-121.934;2022-11-15T03:29:19;10.50;99.90
20200;DHT22;36284;37.236;-121.934;2022-11-15T03:31:53;10.40;99.90
20200;DHT22;36284;37.236;-121.934;2022-11-15T03:37:01;10.40;99.90
20200;DHT22;36284;37.236;-121.934;2022-11-15T03:39:29;10.40;99.90
20200;DHT22;36284;37.236;-121.934;2022-11-15T03:49:53;10.50;99.90
20200;DHT22;36284;37.236;-121.934;2022-11-15T03:52:22;10.40;99.90
20200;DHT22;36284;37.236;-121.934;2022-11-15T03:54:51;10.30;99.90
20200;DHT22;36284;37.236;-121.934;2022-11-15T03:57:19;10.20;99.90
20200;DHT22;36284;37.236;-121.934;2022-11-15T03:59:46;10.10;99.90
20200;DHT22;36284;37.236;-121.934;2022-11-15T04:02:13;10.10;99.90
20200;DHT22;36284;37.236;-121.934;2022-11-15T04:04:40;10.30;99.90
20200;DHT22;36284;37.236;-121.934;2022-11-15T04:07:07;10.60;99.90
20200;DHT22;36284;37.236;-121.934;2022-11-15T04:09:34;10.40;99.90
20200;DHT22;36284;37.236;-121.934;2022-11-15T04:12:21;10.30;99.90
20200;DHT22;36284;37.236;-121.934;2022-11-15T04:15:02;10.10;99.90
20200;DHT22;36284;37.236;-121.934;2022-11-15T04:20:15;10.00;99.90
20200;DHT22;36284;37.236;-121.934;2022-11-15T04:23:03;9.80;99.90
20200;DHT22;36284;37.236;-121.934;2022-11-15T04:25:54;9.80;99.90
20200;DHT22;36284;37.236;-121.934;2022-11-15T04:28:21;9.70;99.90
20200;DHT22;36284;37.236;-121.934;2022-11-15T04:30:48;9.40;99.90
20200;DHT22;36284;37.236;-121.934;2022-11-15T04:33:15;9.40;99.90
20200;DHT22;36284;37.236;-121.934;2022-11-15T04:35:42;9.30;99.90
20200;DHT22;36284;37.236;-121.934;2022-11-15T04:38:10;9.20;99.90
20200;DHT22;36284;37.236;-121.934;2022-11-15T04:40:38;9.20;99.90
20200;DHT22;36284;37.236;-121.934;2022-11-15T04:43:05;9.30;99.90
20200;DHT22;36284;37.236;-121.934;2022-11-15T04:45:31;9.20;99.90
20200;DHT22;36284;37.236;-121.934;2022-11-15T04:47:58;9.10;99.90
20200;DHT22;36284;37.236;-121.934;2022-11-15T04:50:25;8.90;99.90
20200;DHT22;36284;37.236;-121.934;2022-11-15T04:52:53;8.90;99.90
20200;DHT22;36284;37.236;-121.934;2022-11-15T04:55:20;8.90;99.90
20200;DHT22;36284;37.236;-121.934;2022-11-15T04:57:47;8.90;99.90
20200;DHT22;36284;37.236;-121.934;2022-11-15T05:00:16;9.10;99.90
20200;DHT22;36284;37.236;-121.934;2022-11-15T05:02:43;9.10;99.90
20200;DHT22;36284;37.236;-121.934;2022-11-15T05:05:29;9.00;99.90
20200;DHT22;36284;37.236;-121.934;2022-11-15T05:07:55;9.00;99.90
20200;DHT22;36284;37.236;-121.934;2022-11-15T05:10:22;8.90;99.90
20200;DHT22;36284;37.236;-121.934;2022-11-15T05:12:49;8.90;99.90
20200;DHT22;36284;37.236;-121.934;2022-11-15T05:15:16;8.80;99.90
20200;DHT22;36284;37.236;-121.934;2022-11-15T05:17:43;8.80;99.90
20200;DHT22;36284;37.236;-121.934;2022-11-15T05:20:11;9.00;99.90
20200;DHT22;36284;37.236;-121.934;2022-11-15T05:22:37;9.00;99.90
20200;DHT22;36284;37.236;-121.934;2022-11-15T05:25:05;9.10;99.90
20200;DHT22;36284;37.236;-121.934;2022-11-15T05:27:33;9.10;99.90
20200;DHT22;36284;37.236;-121.934;2022-11-15T05:30:00;9.30;99.90
20200;DHT22;36284;37.236;-121.934;2022-11-15T05:32:28;9.30;99.90
20200;DHT22;36284;37.236;-121.934;2022-11-15T05:34:55;9.40;99.90
20200;DHT22;36284;37.236;-121.934;2022-11-15T05:37:22;9.30;99.90
20200;DHT22;36284;37.236;-121.934;2022-11-15T05:39:49;9.20;99.90
20200;DHT22;36284;37.236;-121.934;2022-11-15T05:42:16;9.20;99.90
20200;DHT22;36284;37.236;-121.934;2022-11-15T05:44:47;9.10;99.90
20200;DHT22;36284;37.236;-121.934;2022-11-15T05:47:20;9.10;99.90
20200;DHT22;36284;37.236;-121.934;2022-11-15T05:49:50;9.00;99.90
20200;DHT22;36284;37.236;-121.934;2022-11-15T05:52:22;9.00;99.90
20200;DHT22;36284;37.236;-121.934;2022-11-15T05:54:49;9.00;99.90
20200;DHT22;36284;37.236;-121.934;2022-11-15T05:57:17;8.80;99.90
20200;DHT22;36284;37.236;-121.934;2022-11-15T05:59:44;8.70;99.90
20200;DHT22;36284;37.236;-121.934;2022-11-15T06:02:11;8.60;99.90
20200;DHT22;36284;37.236;-121.934;2022-11-15T06:04:38;8.60;99.90
20200;DHT22;36284;37.236;-121.934;2022-11-15T06:07:05;8.40;99.90
20200;DHT22;36284;37.236;-121.934;2022-11-15T06:09:32;8.40;99.90
20200;DHT22;36284;37.236;-121.934;2022-11-15T06:11:59;8.20;99.90
20200;DHT22;36284;37.236;-121.934;2022-11-15T06:14:25;8.20;99.90
20200;DHT22;36284;37.236;-121.934;2022-11-15T06:16:52;8.10;99.90
20200;DHT22;36284;37.236;-121.934;2022-11-15T06:19:19;8.10;99.90
20200;DHT22;36284;37.236;-121.934;2022-11-15T06:21:46;8.10;99.90
20200;DHT22;36284;37.236;-121.934;2022-11-15T06:24:13;8.00;99.90
20200;DHT22;36284;37.236;-121.934;2022-11-15T06:26:40;7.90;99.90
20200;DHT22;36284;37.236;-121.934;2022-11-15T06:29:07;7.90;99.90
20200;DHT22;36284;37.236;-121.934;2022-11-15T06:31:34;7.80;99.90
20200;DHT22;36284;37.236;-121.934;2022-11-15T06:34:01;7.80;99.90
20200;DHT22;36284;37.236;-121.934;2022-11-15T06:36:28;7.80;99.90
20200;DHT22;36284;37.236;-121.934;2022-11-15T06:38:56;7.90;99.90
20200;DHT22;36284;37.236;-121.934;2022-11-15T06:41:22;7.90;99.90
20200;DHT22;36284;37.236;-121.934;2022-11-15T06:43:49;7.90;99.90
20200;DHT22;36284;37.236;-121.934;2022-11-15T06:46:16;7.90;99.90
20200;DHT22;36284;37.236;-121.934;2022-11-15T06:48:43;7.90;99.90
20200;DHT22;36284;37.236;-121.934;2022-11-15T06:51:10;7.90;99.90
20200;DHT22;36284;37.236;-121.934;2022-11-15T06:53:37;7.90;99.90
20200;DHT22;36284;37.236;-121.934;2022-11-15T06:56:05;7.90;99.90
20200;DHT22;36284;37.236;-121.934;2022-11-15T06:58:33;7.90;99.90
20200;DHT22;36284;37.236;-121.934;2022-11-15T07:01:02;8.00;99.90
20200;DHT22;36284;37.236;-121.934;2022-11-15T07:03:29;8.00;99.90
20200;DHT22;36284;37.236;-121.934;2022-11-15T07:05:56;8.00;99.90
20200;DHT22;36284;37.236;-121.934;2022-11-15T07:08:26;8.10;99.90
20200;DHT22;36284;37.236;-121.934;2022-11-15T07:10:57;8.20;99.90
20200;DHT22;36284;37.236;-121.934;2022-11-15T07:13:26;8.10;99.90
20200;DHT22;36284;37.236;-121.934;2022-11-15T07:15:53;8.00;99.90
20200;DHT22;36284;37.236;-121.934;2022-11-15T07:18:20;8.00;99.90
20200;DHT22;36284;37.236;-121.934;2022-11-15T07:20:47;7.90;99.90
20200;DHT22;36284;37.236;-121.934;2022-11-15T07:23:14;7.80;99.90
20200;DHT22;36284;37.236;-121.934;2022-11-15T07:25:41;7.80;99.90
20200;DHT22;36284;37.236;-121.934;2022-11-15T07:28:07;7.80;99.90
20200;DHT22;36284;37.236;-121.934;2022-11-15T07:30:34;7.70;99.90
20200;DHT22;36284;37.236;-121.934;2022-11-15T07:33:02;7.70;99.90
20200;DHT22;36284;37.236;-121.934;2022-11-15T07:35:29;7.70;99.90
20200;DHT22;36284;37.236;-121.934;2022-11-15T07:37:57;7.60;99.90
20200;DHT22;36284;37.236;-121.934;2022-11-15T07:40:26;7.50;99.90
20200;DHT22;36284;37.236;-121.934;2022-11-15T07:42:58;7.40;99.90
20200;DHT22;36284;37.236;-121.934;2022-11-15T07:45:25;7.30;99.90
20200;DHT22;36284;37.236;-121.934;2022-11-15T07:47:53;7.30;99.90
20200;DHT22;36284;37.236;-121.934;2022-11-15T07:50:20;7.20;99.90
20200;DHT22;36284;37.236;-121.934;2022-11-15T07:52:47;7.10;99.90
20200;DHT22;36284;37.236;-121.934;2022-11-15T07:55:14;7.00;99.90
20200;DHT22;36284;37.236;-121.934;2022-11-15T07:57:40;6.90;99.90
20200;DHT22;36284;37.236;-121.934;2022-11-15T08:00:08;6.90;99.90
20200;DHT22;36284;37.236;-121.934;2022-11-15T08:02:35;6.80;99.90
20200;DHT22;36284;37.236;-121.934;2022-11-15T08:05:02;6.70;99.90
20200;DHT22;36284;37.236;-121.934;2022-11-15T08:07:30;6.70;99.90
20200;DHT22;36284;37.236;-121.934;2022-11-15T08:09:58;6.70;99.90
20200;DHT22;36284;37.236;-121.934;2022-11-15T08:12:25;6.60;99.90
20200;DHT22;36284;37.236;-121.934;2022-11-15T08:14:51;6.50;99.90
20200;DHT22;36284;37.236;-121.934;2022-11-15T08:17:18;6.50;99.90
20200;DHT22;36284;37.236;-121.934;2022-11-15T08:19:45;6.50;99.90
20200;DHT22;36284;37.236;-121.934;2022-11-15T08:22:12;6.40;99.90
20200;DHT22;36284;37.236;-121.934;2022-11-15T08:24:39;6.40;99.90
20200;DHT22;36284;37.236;-121.934;2022-11-15T08:27:07;6.40;99.90
20200;DHT22;36284;37.236;-121.934;2022-11-15T08:29:42;6.40;99.90
20200;DHT22;36284;37.236;-121.934;2022-11-15T08:32:11;6.40;99.90
20200;DHT22;36284;37.236;-121.934;2022-11-15T08:34:38;6.30;99.90
20200;DHT22;36284;37.236;-121.934;2022-11-15T08:37:06;6.30;99.90
20200;DHT22;36284;37.236;-121.934;2022-11-15T08:39:32;6.30;99.90
20200;DHT22;36284;37.236;-121.934;2022-11-15T08:41:59;6.10;99.90
20200;DHT22;36284;37.236;-121.934;2022-11-15T08:44:26;6.10;99.90
20200;DHT22;36284;37.236;-121.934;2022-11-15T08:46:53;6.00;99.90
20200;DHT22;36284;37.236;-121.934;2022-11-15T08:49:20;6.00;99.90
20200;DHT22;36284;37.236;-121.934;2022-11-15T08:51:47;6.00;99.90
20200;DHT22;36284;37.236;-121.934;2022-11-15T08:54:14;6.20;99.90
20200;DHT22;36284;37.236;-121.934;2022-11-15T08:56:41;6.20;99.90
20200;DHT22;36284;37.236;-121.934;2022-11-15T08:59:08;6.30;99.90
20200;DHT22;36284;37.236;-121.934;2022-11-15T09:01:35;6.20;99.90
20200;DHT22;36284;37.236;-121.934;2022-11-15T09:04:02;6.20;99.90
20200;DHT22;36284;37.236;-121.934;2022-11-15T09:06:30;6.40;99.90
20200;DHT22;36284;37.236;-121.934;2022-11-15T09:08:57;6.60;99.90
20200;DHT22;36284;37.236;-121.934;2022-11-15T09:11:24;6.60;99.90
20200;DHT22;36284;37.236;-121.934;2022-11-15T09:13:53;6.60;99.90
20200;DHT22;36284;37.236;-121.934;2022-11-15T09:16:19;6.70;99.90
20200;DHT22;36284;37.236;-121.934;2022-11-15T09:18:46;6.70;99.90
20200;DHT22;36284;37.236;-121.934;2022-11-15T09:21:13;6.80;99.90
20200;DHT22;36284;37.236;-121.934;2022-11-15T09:23:40;7.00;99.90
20200;DHT22;36284;37.236;-121.934;2022-11-15T09:26:07;6.90;99.90
20200;DHT22;36284;37.236;-121.934;2022-11-15T09:28:34;6.80;99.90
20200;DHT22;36284;37.236;-121.934;2022-11-15T09:31:05;6.80;99.90
20200;DHT22;36284;37.236;-121.934;2022-11-15T09:33:32;6.80;99.90
20200;DHT22;36284;37.236;-121.934;2022-11-15T09:36:07;6.80;99.90
20200;DHT22;36284;37.236;-121.934;2022-11-15T09:38:34;6.70;99.90
20200;DHT22;36284;37.236;-121.934;2022-11-15T09:48:54;6.20;99.90
20200;DHT22;36284;37.236;-121.934;2022-11-15T09:51:28;6.20;99.90
20200;DHT22;36284;37.236;-121.934;2022-11-15T09:54:08;6.10;99.90
20200;DHT22;36284;37.236;-121.934;2022-11-15T09:56:40;6.20;99.90
20200;DHT22;36284;37.236;-121.934;2022-11-15T10:02:17;6.10;99.90
20200;DHT22;36284;37.236;-121.934;2022-11-15T10:04:46;6.00;99.90
20200;DHT22;36284;37.236;-121.934;2022-11-15T10:07:23;6.10;99.90
20200;DHT22;36284;37.236;-121.934;2022-11-15T10:10:00;6.20;99.90
20200;DHT22;36284;37.236;-121.934;2022-11-15T10:12:28;6.10;99.90
20200;DHT22;36284;37.236;-121.934;2022-11-15T10:15:11;5.90;99.90
20200;DHT22;36284;37.236;-121.934;2022-11-15T10:20:46;5.70;99.90
20200;DHT22;36284;37.236;-121.934;2022-11-15T10:23:15;5.70;99.90
20200;DHT22;36284;37.236;-121.934;2022-11-15T10:25:43;5.60;99.90
20200;DHT22;36284;37.236;-121.934;2022-11-15T10:28:27;5.60;99.90
20200;DHT22;36284;37.236;-121.934;2022-11-15T10:30:56;5.50;99.90
20200;DHT22;36284;37.236;-121.934;2022-11-15T10:33:31;5.50;99.90
20200;DHT22;36284;37.236;-121.934;2022-11-15T10:47:03;5.30;99.90
20200;DHT22;36284;37.236;-121.934;2022-11-15T10:49:32;5.30;99.90
20200;DHT22;36284;37.236;-121.934;2022-11-15T10:54:42;5.20;99.90
20200;DHT22;36284;37.236;-121.934;2022-11-15T10:57:15;5.20;99.90
20200;DHT22;36284;37.236;-121.934;2022-11-15T10:59:51;5.20;99.90
20200;DHT22;36284;37.236;-121.934;2022-11-15T11:02:31;5.20;99.90
20200;DHT22;36284;37.236;-121.934;2022-11-15T11:04:59;5.30;99.90
20200;DHT22;36284;37.236;-121.934;2022-11-15T11:07:31;5.70;99.90
20200;DHT22;36284;37.236;-121.934;2022-11-15T11:12:31;6.00;99.90
20200;DHT22;36284;37.236;-121.934;2022-11-15T11:14:59;5.90;99.90
20200;DHT22;36284;37.236;-121.934;2022-11-15T11:23:29;5.20;99.90
20200;DHT22;36284;37.236;-121.934;2022-11-15T11:34:50;5.20;99.90
20200;DHT22;36284;37.236;-121.934;2022-11-15T11:40:29;5.20;99.90
20200;DHT22;36284;37.236;-121.934;2022-11-15T11:46:38;5.10;99.90
20200;DHT22;36284;37.236;-121.934;2022-11-15T11:52:26;4.90;99.90
20200;DHT22;36284;37.236;-121.934;2022-11-15T11:57:51;4.80;99.90
20200;DHT22;36284;37.236;-121.934;2022-11-15T12:00:24;5.10;99.90
20200;DHT22;36284;37.236;-121.934;2022-11-15T12:05:44;5.00;99.90
20200;DHT22;36284;37.236;-121.934;2022-11-15T12:11:03;4.90;99.90
20200;DHT22;36284;37.236;-121.934;2022-11-15T12:13:34;4.80;99.90
20200;DHT22;36284;37.236;-121.934;2022-11-15T12:16:19;4.70;99.90
20200;DHT22;36284;37.236;-121.934;2022-11-15T12:18:51;4.70;99.90
20200;DHT22;36284;37.236;-121.934;2022-11-15T12:24:41;4.50;99.90
20200;DHT22;36284;37.236;-121.934;2022-11-15T12:27:35;4.40;99.90
20200;DHT22;36284;37.236;-121.934;2022-11-15T12:30:28;4.40;99.90
20200;DHT22;36284;37.236;-121.934;2022-11-15T12:32:59;4.40;99.90
20200;DHT22;36284;37.236;-121.934;2022-11-15T12:35:56;4.30;99.90
20200;DHT22;36284;37.236;-121.934;2022-11-15T12:38:55;4.30;99.90
20200;DHT22;36284;37.236;-121.934;2022-11-15T12:41:27;4.20;99.90
20200;DHT22;36284;37.236;-121.934;2022-11-15T12:43:55;4.10;99.90
20200;DHT22;36284;37.236;-121.934;2022-11-15T12:46:33;4.10;99.90
20200;DHT22;36284;37.236;-121.934;2022-11-15T12:59:54;3.90;99.90
20200;DHT22;36284;37.236;-121.934;2022-11-15T13:10:29;4.80;99.90
20200;DHT22;36284;37.236;-121.934;2022-11-15T13:15:56;5.00;99.90
20200;DHT22;36284;37.236;-121.934;2022-11-15T13:18:37;5.10;99.90
20200;DHT22;36284;37.236;-121.934;2022-11-15T13:21:18;5.30;99.90
20200;DHT22;36284;37.236;-121.934;2022-11-15T13:24:04;5.50;99.90
20200;DHT22;36284;37.236;-121.934;2022-11-15T13:26:31;5.70;99.90
20200;DHT22;36284;37.236;-121.934;2022-11-15T13:28:59;5.70;99.90
20200;DHT22;36284;37.236;-121.934;2022-11-15T13:31:39;5.70;99.90
20200;DHT22;36284;37.236;-121.934;2022-11-15T13:34:28;5.80;99.90
20200;DHT22;36284;37.236;-121.934;2022-11-15T13:36:56;5.70;99.90
20200;DHT22;36284;37.236;-121.934;2022-11-15T13:39:34;5.70;99.90
20200;DHT22;36284;37.236;-121.934;2022-11-15T13:42:03;5.70;99.90
20200;DHT22;36284;37.236;-121.934;2022-11-15T13:44:32;5.70;99.90
20200;DHT22;36284;37.236;-121.934;2022-11-15T13:47:03;5.70;99.90
20200;DHT22;36284;37.236;-121.934;2022-11-15T13:49:32;5.80;99.90
20200;DHT22;36284;37.236;-121.934;2022-11-15T13:52:02;5.60;99.90
20200;DHT22;36284;37.236;-121.934;2022-11-15T13:55:08;5.60;99.90
20200;DHT22;36284;37.236;-121.934;2022-11-15T13:57:31;5.40;99.90
20200;DHT22;36284;37.236;-121.934;2022-11-15T14:00:23;5.40;99.90
20200;DHT22;36284;37.236;-121.934;2022-11-15T14:02:51;5.40;99.90
20200;DHT22;36284;37.236;-121.934;2022-11-15T14:05:21;5.30;99.90
20200;DHT22;36284;37.236;-121.934;2022-11-15T14:08:12;5.50;99.90
20200;DHT22;36284;37.236;-121.934;2022-11-15T14:10:40;5.70;99.90
20200;DHT22;36284;37.236;-121.934;2022-11-15T14:13:28;5.70;99.90
20200;DHT22;36284;37.236;-121.934;2022-11-15T14:16:13;5.80;99.90
20200;DHT22;36284;37.236;-121.934;2022-11-15T14:18:44;5.60;99.90
20200;DHT22;36284;37.236;-121.934;2022-11-15T14:21:12;5.50;99.90
20200;DHT22;36284;37.236;-121.934;2022-11-15T14:23:39;5.60;99.90
20200;DHT22;36284;37.236;-121.934;2022-11-15T14:26:31;5.80;99.90
20200;DHT22;36284;37.236;-121.934;2022-11-15T14:29:26;5.80;99.90
20200;DHT22;36284;37.236;-121.934;2022-11-15T14:31:54;5.90;99.90
20200;DHT22;36284;37.236;-121.934;2022-11-15T14:34:32;5.90;99.90
20200;DHT22;36284;37.236;-121.934;2022-11-15T14:36:59;6.00;99.90
20200;DHT22;36284;37.236;-121.934;2022-11-15T14:39:26;5.90;99.90
20200;DHT22;36284;37.236;-121.934;2022-11-15T14:41:53;5.60;99.90
20200;DHT22;36284;37.236;-121.934;2022-11-15T14:44:20;5.60;99.90
20200;DHT22;36284;37.236;-121.934;2022-11-15T14:46:48;5.50;99.90
20200;DHT22;36284;37.236;-121.934;2022-11-15T14:49:14;5.40;99.90
20200;DHT22;36284;37.236;-121.934;2022-11-15T14:51:42;5.20;99.90
20200;DHT22;36284;37.236;-121.934;2022-11-15T14:54:12;5.00;99.90
20200;DHT22;36284;37.236;-121.934;2022-11-15T14:56:39;4.90;99.90
20200;DHT22;36284;37.236;-121.934;2022-11-15T14:59:06;4.80;99.90
20200;DHT22;36284;37.236;-121.934;2022-11-15T15:01:33;4.70;99.90
20200;DHT22;36284;37.236;-121.934;2022-11-15T15:04:00;4.70;99.90
20200;DHT22;36284;37.236;-121.934;2022-11-15T15:06:27;4.70;99.90
20200;DHT22;36284;37.236;-121.934;2022-11-15T15:08:54;4.80;99.90
20200;DHT22;36284;37.236;-121.934;2022-11-15T15:11:26;4.80;99.90
20200;DHT22;36284;37.236;-121.934;2022-11-15T15:13:54;4.70;99.90
20200;DHT22;36284;37.236;-121.934;2022-11-15T15:16:24;4.80;99.90
20200;DHT22;36284;37.236;-121.934;2022-11-15T15:18:51;5.00;99.90
20200;DHT22;36284;37.236;-121.934;2022-11-15T15:21:22;5.10;99.90
20200;DHT22;36284;37.236;-121.934;2022-11-15T15:23:50;5.10;99.90
20200;DHT22;36284;37.236;-121.934;2022-11-15T15:26:17;5.20;99.90
20200;DHT22;36284;37.236;-121.934;2022-11-15T15:28:44;5.40;99.90
20200;DHT22;36284;37.236;-121.934;2022-11-15T15:31:11;5.60;99.90
20200;DHT22;36284;37.236;-121.934;2022-11-15T15:33:38;5.70;99.90
20200;DHT22;36284;37.236;-121.934;2022-11-15T15:36:07;6.00;99.90
20200;DHT22;36284;37.236;-121.934;2022-11-15T15:38:35;6.10;99.90
20200;DHT22;36284;37.236;-121.934;2022-11-15T15:41:02;6.30;99.90
20200;DHT22;36284;37.236;-121.934;2022-11-15T15:43:29;6.60;99.90
20200;DHT22;36284;37.236;-121.934;2022-11-15T15:45:56;6.80;99.90
20200;DHT22;36284;37.236;-121.934;2022-11-15T15:48:23;7.20;99.90
20200;DHT22;36284;37.236;-121.934;2022-11-15T15:50:50;7.20;99.90
20200;DHT22;36284;37.236;-121.934;2022-11-15T15:53:17;7.20;99.90
20200;DHT22;36284;37.236;-121.934;2022-11-15T15:55:44;7.30;99.90
20200;DHT22;36284;37.236;-121.934;2022-11-15T15:58:11;7.20;99.90
20200;DHT22;36284;37.236;-121.934;2022-11-15T16:00:38;7.20;99.90
20200;DHT22;36284;37.236;-121.934;2022-11-15T16:03:05;7.30;99.90
20200;DHT22;36284;37.236;-121.934;2022-11-15T16:05:32;7.30;99.90
20200;DHT22;36284;37.236;-121.934;2022-11-15T16:07:59;7.30;99.90
20200;DHT22;36284;37.236;-121.934;2022-11-15T16:10:33;7.40;99.90
20200;DHT22;36284;37.236;-121.934;2022-11-15T16:13:00;7.40;99.90
20200;DHT22;36284;37.236;-121.934;2022-11-15T16:15:30;7.60;99.90
20200;DHT22;36284;37.236;-121.934;2022-11-15T16:17:58;7.60;99.90
20200;DHT22;36284;37.236;-121.934;2022-11-15T16:20:43;7.70;99.90
20200;DHT22;36284;37.236;-121.934;2022-11-15T16:23:16;7.80;99.90
20200;DHT22;36284;37.236;-121.934;2022-11-15T16:25:51;8.20;99.90
20200;DHT22;36284;37.236;-121.934;2022-11-15T16:28:23;9.00;99.90
20200;DHT22;36284;37.236;-121.934;2022-11-15T16:31:07;9.80;99.90
20200;DHT22;36284;37.236;-121.934;2022-11-15T16:33:34;10.60;99.90
20200;DHT22;36284;37.236;-121.934;2022-11-15T16:36:03;11.60;99.90
20200;DHT22;36284;37.236;-121.934;2022-11-15T16:38:30;12.30;99.90
20200;DHT22;36284;37.236;-121.934;2022-11-15T16:40:57;13.00;99.90
20200;DHT22;36284;37.236;-121.934;2022-11-15T16:43:24;13.60;99.90
20200;DHT22;36284;37.236;-121.934;2022-11-15T16:45:50;13.90;99.90
20200;DHT22;36284;37.236;-121.934;2022-11-15T16:50:47;14.70;99.90
20200;DHT22;36284;37.236;-121.934;2022-11-15T16:53:14;15.10;99.90
20200;DHT22;36284;37.236;-121.934;2022-11-15T16:55:41;15.60;99.90
20200;DHT22;36284;37.236;-121.934;2022-11-15T16:58:09;15.80;99.90
20200;DHT22;36284;37.236;-121.934;2022-11-15T17:00:36;16.00;99.90
20200;DHT22;36284;37.236;-121.934;2022-11-15T17:03:03;16.20;99.90
20200;DHT22;36284;37.236;-121.934;2022-11-15T17:05:30;16.40;99.90
20200;DHT22;36284;37.236;-121.934;2022-11-15T17:07:57;16.50;99.90
20200;DHT22;36284;37.236;-121.934;2022-11-15T17:10:25;16.90;99.90
20200;DHT22;36284;37.236;-121.934;2022-11-15T17:12:53;17.00;99.90
20200;DHT22;36284;37.236;-121.934;2022-11-15T17:15:21;17.20;99.90
20200;DHT22;36284;37.236;-121.934;2022-11-15T17:17:53;17.60;99.90
20200;DHT22;36284;37.236;-121.934;2022-11-15T17:20:22;17.60;99.90
20200;DHT22;36284;37.236;-121.934;2022-11-15T17:22:50;17.90;99.90
20200;DHT22;36284;37.236;-121.934;2022-11-15T17:25:18;18.10;99.90
20200;DHT22;36284;37.236;-121.934;2022-11-15T17:27:45;17.80;99.90
20200;DHT22;36284;37.236;-121.934;2022-11-15T17:30:13;18.00;99.90